Stations météo

réclame
Mon MeteoGroup
Tarifa, Espagne (8458): Température de l'air & dewpoint: 15.01.2018 13:00:00 - 21.01.2018 13:00:00 (CET)Tarifa, Espagne (8458): Vitesse du vent & gusts: 15.01.2018 13:00:00 - 21.01.2018 13:00:00 (CET)Tarifa, Espagne (8458): Direction du vent: 15.01.2018 13:00:00 - 21.01.2018 13:00:00 (CET)Tarifa, Espagne (8458): Quantités de précipitations: 15.01.2018 13:00:00 - 21.01.2018 13:00:00 (CET)
Date & Time tt [°C] td [°C] ff [km/h] ff [knt] fx [km/h] fx [knt] dd rr [mm]
21.01.2018 13:00:00 13,9 12,1 19 10 29 15 W -
21.01.2018 12:00:00 13,8 12,2 18 10 29 15 WNW 0,0
21.01.2018 11:00:00 13,7 12,4 15 8 24 13 W 0,0
21.01.2018 10:00:00 12,5 11,4 13 7 23 13 WNW 0,0
21.01.2018 09:00:00 11,4 10,4 17 9 27 15 NW 0,0
21.01.2018 08:00:00 10,5 10,2 16 9 25 13 NW 0,0
21.01.2018 07:00:00 11,1 10,6 15 8 23 12 WNW -
21.01.2018 06:00:00 13,2 12,8 13 7 27 14 WNW 0,0
21.01.2018 05:00:00 12,7 12,1 12 7 23 12 WNW 0,0
21.01.2018 04:00:00 13,1 12,1 16 8 22 12 W 0,0
21.01.2018 03:00:00 15,0 13,6 12 7 22 12 WNW 0,0
21.01.2018 02:00:00 14,5 14,3 13 7 22 12 NW 0,0
21.01.2018 01:00:00 - - - - - - - -
21.01.2018 00:00:00 13,1 12,1 8 4 22 12 WNW 0,0
20.01.2018 23:00:00 15,3 14,7 7 4 18 10 W 0,0
20.01.2018 22:00:00 14,5 14,3 10 6 19 10 NW 0,0
20.01.2018 21:00:00 13,5 13,4 11 6 20 11 WNW 0,0
20.01.2018 20:00:00 14,1 13,9 13 7 22 12 W 0,0
20.01.2018 19:00:00 14,8 14,3 17 9 29 16 WSW -
20.01.2018 18:00:00 14,9 13,9 19 10 31 17 WSW 0,0
20.01.2018 17:00:00 15,5 14,0 18 10 32 17 WSW 0,0
20.01.2018 16:00:00 15,6 13,8 21 11 32 17 WSW 0,0
20.01.2018 15:00:00 15,8 13,5 19 11 34 19 W 0,0
20.01.2018 14:00:00 15,6 13,8 20 11 33 18 WSW 0,0
20.01.2018 13:00:00 14,9 13,8 16 9 31 17 SW -
20.01.2018 12:00:00 13,9 13,8 19 10 34 18 SW 0,0
20.01.2018 11:00:00 13,0 12,8 21 11 34 18 SW 0,0
20.01.2018 10:00:00 13,1 13,0 20 11 34 18 WSW 0,0
20.01.2018 09:00:00 14,9 14,7 15 8 26 14 WSW 0,0
20.01.2018 08:00:00 15,1 15,0 18 10 27 15 SW 0,0
20.01.2018 07:00:00 14,7 14,2 8 4 16 9 NNW -
20.01.2018 06:00:00 14,2 13,8 13 7 19 11 NNW 0,0
20.01.2018 05:00:00 14,3 13,9 15 8 23 13 NNW 0,0
20.01.2018 04:00:00 14,3 13,9 9 5 - - N -
20.01.2018 03:00:00 14,0 13,6 10 5 18 10 N 0,0
20.01.2018 02:00:00 14,1 13,5 10 5 18 10 NNW 0,0
20.01.2018 01:00:00 - - - - - - - -
20.01.2018 00:00:00 14,6 13,5 13 7 19 10 NNW 0,0
19.01.2018 23:00:00 14,0 13,1 10 6 20 11 NW 0,0
19.01.2018 22:00:00 14,5 13,6 12 6 22 12 NW 0,0
19.01.2018 21:00:00 14,1 13,4 14 7 22 12 NW 0,0
19.01.2018 20:00:00 15,2 14,4 10 5 21 11 WNW 0,0
19.01.2018 19:00:00 15,5 14,5 14 8 22 12 W -
19.01.2018 18:00:00 16,1 14,2 15 8 25 13 W 0,0
19.01.2018 17:00:00 17,4 15,5 17 9 29 16 WSW 0,0
19.01.2018 16:00:00 16,7 14,7 17 9 29 15 W 0,0
19.01.2018 15:00:00 16,6 14,4 15 8 23 12 W 0,0
19.01.2018 14:00:00 16,3 14,3 12 7 18 10 WSW 0,0
19.01.2018 13:00:00 16,3 14,3 11 6 18 10 WSW -
19.01.2018 12:00:00 15,4 13,8 14 7 43 23 SW 0,0
19.01.2018 11:00:00 16,0 12,7 8 4 14 7 SW 0,0
19.01.2018 10:00:00 15,6 13,5 6 4 9 5 N 0,0
19.01.2018 09:00:00 16,0 13,3 5 3 20 11 NE 0,0
19.01.2018 08:00:00 16,0 13,0 11 6 26 14 E 0,0
19.01.2018 07:00:00 15,9 13,2 12 6 18 10 ENE -
19.01.2018 06:00:00 16,1 13,4 6 3 22 12 ENE 0,0
19.01.2018 05:00:00 16,0 13,7 10 5 24 13 ENE 0,0
19.01.2018 04:00:00 16,2 14,5 14 7 26 14 ENE 0,0
19.01.2018 03:00:00 16,3 14,5 15 8 25 14 ENE 0,0
19.01.2018 02:00:00 16,6 13,9 17 9 34 19 NE 0,0
19.01.2018 01:00:00 16,4 14,6 20 11 39 21 ENE -
19.01.2018 00:00:00 16,5 14,7 23 12 42 23 E 0,0
18.01.2018 23:00:00 16,6 14,6 19 10 44 24 ENE 0,0
18.01.2018 22:00:00 15,7 13,8 28 15 51 28 ENE 0,0
18.01.2018 21:00:00 16,4 14,4 26 14 54 29 ENE 0,0
18.01.2018 20:00:00 14,2 11,9 31 17 56 30 E 0,0
18.01.2018 19:00:00 15,6 12,5 30 16 49 26 ENE -
18.01.2018 18:00:00 14,3 10,9 24 13 53 29 ENE 0,0
18.01.2018 17:00:00 15,0 11,6 27 15 53 29 E 0,0
18.01.2018 16:00:00 15,4 12,3 34 18 54 29 E 0,0
18.01.2018 15:00:00 15,5 13,2 31 17 60 33 E 0,0
18.01.2018 14:00:00 15,4 12,7 37 20 63 34 E 0,0
18.01.2018 13:00:00 15,0 12,8 36 20 64 35 E -
18.01.2018 12:00:00 15,9 12,4 49 26 72 39 E 0,0
18.01.2018 11:00:00 15,0 12,1 46 25 73 39 E 0,0
18.01.2018 10:00:00 14,9 12,4 48 26 82 45 E 0,0
18.01.2018 09:00:00 14,6 13,0 51 27 77 42 E 0,0
18.01.2018 08:00:00 14,6 13,2 48 26 76 41 E 0,0
18.01.2018 07:00:00 14,4 13,3 46 25 69 37 E -
18.01.2018 06:00:00 14,0 13,4 37 20 59 32 E 0,0
18.01.2018 05:00:00 16,2 15,7 34 18 57 31 E 0,0
18.01.2018 04:00:00 16,0 15,5 31 17 58 31 ENE 0,0
18.01.2018 03:00:00 16,3 15,5 36 19 57 31 E 0,0
18.01.2018 02:00:00 16,3 15,3 32 17 55 30 E 0,0
18.01.2018 01:00:00 16,1 14,8 30 16 50 27 ENE -
18.01.2018 00:00:00 15,9 14,4 27 15 47 25 ENE 0,0
17.01.2018 23:00:00 15,8 14,7 19 10 37 20 E 0,0
17.01.2018 22:00:00 16,0 15,1 17 9 30 16 ENE 0,0
17.01.2018 21:00:00 16,5 15,3 18 10 30 16 E 0,0
17.01.2018 20:00:00 14,8 12,6 15 8 25 13 ENE 0,0
17.01.2018 19:00:00 14,9 13,1 14 8 23 12 E -
17.01.2018 18:00:00 15,7 11,7 10 5 14 8 E 0,0
17.01.2018 17:00:00 19,0 12,5 3 2 11 6 S 0,0
17.01.2018 16:00:00 16,5 11,9 6 4 15 8 WNW 0,0
17.01.2018 15:00:00 15,9 11,9 11 6 21 11 W 0,0
17.01.2018 14:00:00 15,7 12,2 13 7 22 12 WSW 0,0
17.01.2018 13:00:00 17,3 13,7 14 7 20 11 SW -
17.01.2018 12:00:00 16,1 13,4 7 4 13 7 WNW 0,0
17.01.2018 11:00:00 15,8 13,1 8 5 14 7 NW 0,0
17.01.2018 10:00:00 14,7 13,1 6 3 10 5 NW 0,0
17.01.2018 09:00:00 11,9 9,9 5 3 9 5 NNE 0,0
17.01.2018 08:00:00 11,7 9,9 7 4 21 12 N 0,0
17.01.2018 07:00:00 10,5 9,6 4 2 10 6 N -
17.01.2018 06:00:00 9,8 8,9 5 3 9 5 NNE 0,0
17.01.2018 05:00:00 10,2 9,3 8 5 13 7 NNE 0,0
17.01.2018 04:00:00 10,5 9,3 6 3 11 6 NE 0,0
17.01.2018 03:00:00 10,5 9,0 8 4 11 6 NE 0,0
17.01.2018 02:00:00 10,5 8,9 8 4 9 5 NE 0,0
17.01.2018 01:00:00 11,3 8,9 2 1 9 5 ENE -
17.01.2018 00:00:00 12,9 9,6 7 4 14 7 NNE 0,0
16.01.2018 23:00:00 14,2 11,7 12 7 19 10 ENE 0,0
16.01.2018 22:00:00 13,5 10,3 11 6 16 8 ENE 0,0
16.01.2018 21:00:00 13,8 9,8 10 5 13 7 ENE 0,0
16.01.2018 20:00:00 13,7 11,0 6 4 18 10 NE 0,0
16.01.2018 19:00:00 13,3 10,9 10 5 26 14 E -
16.01.2018 18:00:00 15,0 12,0 19 11 29 16 E 0,0
16.01.2018 17:00:00 15,2 12,0 20 11 35 19 E 0,0
16.01.2018 16:00:00 15,5 11,7 19 11 34 18 E 0,0
16.01.2018 15:00:00 15,8 11,6 22 12 32 17 E 0,0
16.01.2018 14:00:00 15,4 10,8 22 12 34 18 E 0,0
16.01.2018 13:00:00 16,9 12,0 17 9 32 17 E -
16.01.2018 12:00:00 16,6 11,9 21 12 36 19 E 0,0
16.01.2018 11:00:00 16,3 12,1 17 9 32 18 ENE 0,0
16.01.2018 10:00:00 15,0 12,3 12 7 25 14 ENE 0,0
16.01.2018 09:00:00 13,5 11,7 15 8 23 12 ENE 0,0
16.01.2018 08:00:00 12,7 10,9 14 7 24 13 NE 0,0
16.01.2018 07:00:00 13,7 10,9 14 8 29 16 ENE -
16.01.2018 06:00:00 13,5 10,9 15 8 25 14 ENE 0,0
16.01.2018 05:00:00 13,7 10,2 13 7 31 17 NE 0,0
16.01.2018 04:00:00 14,8 11,0 18 10 39 21 ENE 0,0
16.01.2018 03:00:00 15,3 11,1 28 15 44 24 E 0,0
16.01.2018 02:00:00 14,6 10,6 22 12 35 19 ENE 0,0
16.01.2018 01:00:00 14,4 10,2 17 9 31 17 ENE -
16.01.2018 00:00:00 14,3 9,9 16 9 29 16 ENE 0,0
15.01.2018 23:00:00 14,5 9,9 15 8 31 17 ENE 0,0
15.01.2018 22:00:00 14,7 9,9 19 10 32 18 ENE 0,0
15.01.2018 21:00:00 14,3 9,3 18 10 29 16 ENE 0,0
15.01.2018 20:00:00 14,3 9,7 16 9 32 17 ENE 0,0
15.01.2018 19:00:00 13,9 9,6 12 7 26 14 NE -
15.01.2018 18:00:00 14,9 10,0 12 7 28 15 ENE 0,0
15.01.2018 17:00:00 14,4 9,0 16 8 32 18 E 0,0
15.01.2018 16:00:00 15,7 9,2 19 10 29 16 E 0,0
15.01.2018 15:00:00 15,8 9,0 21 11 30 16 E 0,0
15.01.2018 14:00:00 16,2 10,0 19 11 31 17 E 0,0
15.01.2018 13:00:00 15,8 9,2 15 8 28 15 ENE -

tt = Température de l'air
td = dewpoint
ff = Vitesse du vent
fx = gusts
dd = Direction du vent
rr = Quantités de précipitations

stations d'obs. à proximité